createdAt,value
2018-05-10T00:00:03.316Z,2.07
2018-05-10T00:03:10.195Z,1.87
2018-05-10T00:06:17.238Z,2.30
2018-05-10T00:09:23.372Z,2.57
2018-05-10T00:12:29.088Z,2.07
2018-05-10T00:15:34.926Z,1.83
2018-05-10T00:18:41.251Z,2.60
2018-05-10T00:21:47.490Z,1.90
2018-05-10T00:24:53.653Z,2.33
2018-05-10T00:27:59.305Z,2.30
2018-05-10T00:31:05.124Z,2.43
2018-05-10T00:34:10.311Z,2.10
2018-05-10T00:37:15.527Z,2.17
2018-05-10T00:40:21.393Z,2.43
2018-05-10T00:43:27.256Z,2.43
2018-05-10T00:46:34.079Z,2.40
2018-05-10T00:49:40.242Z,2.47
2018-05-10T00:52:44.950Z,2.60
2018-05-10T00:55:50.209Z,2.40
2018-05-10T00:58:55.925Z,2.60
2018-05-10T01:02:01.146Z,2.30
2018-05-10T01:05:06.063Z,2.13
2018-05-10T01:08:11.834Z,2.30
2018-05-10T01:11:17.674Z,2.23
2018-05-10T01:14:22.891Z,2.20
2018-05-10T01:17:27.826Z,2.23
2018-05-10T01:20:33.173Z,2.43
2018-05-10T01:23:39.091Z,2.00
2018-05-10T01:26:44.314Z,2.20
2018-05-10T01:29:49.545Z,2.57
2018-05-10T01:32:55.577Z,2.27
2018-05-10T01:36:13.612Z,2.47
2018-05-10T01:39:20.556Z,2.20
2018-05-10T01:42:27.355Z,2.70
2018-05-10T01:45:34.492Z,2.53
2018-05-10T01:48:40.621Z,2.20
2018-05-10T01:51:46.740Z,2.70
2018-05-10T01:54:52.344Z,2.33
2018-05-10T01:57:58.499Z,2.80
2018-05-10T02:01:04.388Z,2.47
2018-05-10T02:04:10.194Z,2.60
2018-05-10T02:07:15.089Z,2.73
2018-05-10T02:10:20.767Z,2.43
2018-05-10T02:13:26.760Z,2.53
2018-05-10T02:16:33.830Z,2.30
2018-05-10T02:19:39.984Z,2.50
2018-05-10T02:22:46.111Z,2.23
2018-05-10T02:25:51.320Z,2.57
2018-05-10T02:28:56.633Z,2.30
2018-05-10T02:32:02.736Z,2.47
2018-05-10T02:35:09.571Z,2.23
2018-05-10T02:38:14.791Z,2.60
2018-05-10T02:41:21.100Z,2.17
2018-05-10T02:44:27.005Z,2.40
2018-05-10T02:47:31.950Z,2.53
2018-05-10T02:50:38.013Z,2.23
2018-05-10T02:53:44.964Z,2.73
2018-05-10T02:56:50.781Z,2.70
2018-05-10T02:59:56.941Z,2.50
2018-05-10T03:03:02.139Z,3.20
2018-05-10T03:06:08.041Z,2.70
2018-05-10T03:09:13.452Z,2.43
2018-05-10T03:12:18.761Z,2.47
2018-05-10T03:15:23.823Z,2.20
2018-05-10T03:18:29.967Z,2.30
2018-05-10T03:21:37.050Z,2.30
2018-05-10T03:24:42.880Z,2.03
2018-05-10T03:27:48.493Z,2.20
2018-05-10T03:30:53.717Z,2.73
2018-05-10T03:33:58.576Z,2.90
2018-05-10T03:37:04.201Z,2.23
2018-05-10T03:40:10.355Z,2.60
2018-05-10T03:43:15.569Z,2.37
2018-05-10T03:46:21.699Z,2.50
2018-05-10T03:49:27.710Z,2.90
2018-05-10T03:52:32.924Z,2.30
2018-05-10T03:55:39.559Z,2.50
2018-05-10T03:58:45.478Z,2.53
2018-05-10T04:01:51.393Z,2.67
2018-05-10T04:05:09.540Z,2.10
2018-05-10T04:08:26.271Z,2.50
2018-05-10T04:11:31.988Z,2.60
2018-05-10T04:14:38.008Z,2.13
2018-05-10T04:17:44.162Z,2.40
2018-05-10T04:20:49.393Z,2.43
2018-05-10T04:23:55.527Z,2.20
2018-05-10T04:27:00.759Z,2.53
2018-05-10T04:30:05.656Z,2.77
2018-05-10T04:33:12.684Z,2.30
2018-05-10T04:36:18.569Z,2.53
2018-05-10T04:39:23.753Z,2.80
2018-05-10T04:42:30.808Z,2.33
2018-05-10T04:45:36.652Z,2.40
2018-05-10T04:48:41.580Z,3.00
2018-05-10T04:51:47.048Z,2.33
2018-05-10T04:54:52.260Z,2.50
2018-05-10T04:57:58.477Z,2.60
2018-05-10T05:01:05.500Z,2.40
2018-05-10T05:04:11.629Z,2.60
2018-05-10T05:07:17.523Z,3.50
2018-05-10T05:10:22.732Z,2.80
2018-05-10T05:13:29.068Z,3.07
2018-05-10T05:16:36.116Z,3.73
2018-05-10T05:19:41.740Z,2.93
2018-05-10T05:22:46.949Z,2.73
2018-05-10T05:25:52.147Z,3.03
2018-05-10T05:28:58.291Z,3.00
2018-05-10T05:32:04.326Z,3.50
2018-05-10T05:35:11.334Z,3.30
2018-05-10T05:38:16.960Z,3.10
2018-05-10T05:41:24.020Z,3.27
2018-05-10T05:44:30.088Z,2.87
2018-05-10T05:47:36.029Z,2.97
2018-05-10T05:50:42.140Z,3.50
2018-05-10T05:53:48.382Z,4.00
2018-05-10T05:56:54.209Z,3.47
2018-05-10T06:00:00.313Z,3.97
2018-05-10T06:03:05.459Z,3.90
2018-05-10T06:06:11.172Z,4.10
2018-05-10T06:09:17.304Z,4.70
2018-05-10T06:12:24.348Z,4.20
2018-05-10T06:15:30.561Z,3.87
2018-05-10T06:18:36.597Z,3.70
2018-05-10T06:21:42.504Z,4.23
2018-05-10T06:24:48.645Z,4.23
2018-05-10T06:27:54.923Z,4.23
2018-05-10T06:31:01.068Z,3.90
2018-05-10T06:34:06.972Z,4.63
2018-05-10T06:37:13.251Z,4.93
2018-05-10T06:40:18.856Z,5.27
2018-05-10T06:43:24.793Z,4.60
2018-05-10T06:46:30.708Z,5.57
2018-05-10T06:49:35.914Z,4.87
2018-05-10T06:52:41.121Z,4.60
2018-05-10T06:55:46.321Z,5.27
2018-05-10T06:58:53.383Z,4.87
2018-05-10T07:02:00.409Z,5.00
2018-05-10T07:05:07.524Z,5.57
2018-05-10T07:08:14.576Z,4.80
2018-05-10T07:11:20.704Z,4.97
2018-05-10T07:14:26.661Z,5.47
2018-05-10T07:17:31.636Z,5.60
2018-05-10T07:20:36.859Z,6.67
2018-05-10T07:23:42.959Z,5.20
2018-05-10T07:26:48.584Z,5.50
2018-05-10T07:29:54.841Z,5.50
2018-05-10T07:33:00.774Z,4.77
2018-05-10T07:36:07.870Z,5.37
2018-05-10T07:39:14.962Z,5.40
2018-05-10T07:42:21.077Z,5.43
2018-05-10T07:45:27.002Z,4.97
2018-05-10T07:48:32.232Z,5.00
2018-05-10T07:51:37.465Z,5.87
2018-05-10T07:54:43.585Z,4.77
2018-05-10T07:57:49.752Z,5.57
2018-05-10T08:00:54.974Z,5.77
2018-05-10T08:04:00.403Z,5.70
2018-05-10T08:07:05.553Z,5.70
2018-05-10T08:10:10.837Z,5.10
2018-05-10T08:13:16.186Z,5.77
2018-05-10T08:16:22.101Z,5.50
2018-05-10T08:19:27.332Z,5.20
2018-05-10T08:22:32.536Z,5.13
2018-05-10T08:25:37.460Z,5.70
2018-05-10T08:28:42.384Z,5.70
2018-05-10T08:31:47.332Z,5.50
2018-05-10T08:34:53.076Z,5.37
2018-05-10T08:37:59.196Z,6.00
2018-05-10T08:41:05.092Z,6.13
2018-05-10T08:44:10.300Z,5.90
2018-05-10T08:47:15.514Z,6.17
2018-05-10T08:50:20.721Z,6.10
2018-05-10T08:53:27.801Z,6.07
2018-05-10T08:56:34.848Z,6.87
2018-05-10T08:59:41.855Z,5.40
2018-05-10T09:02:48.905Z,5.77
2018-05-10T09:05:55.041Z,4.90
2018-05-10T09:09:01.106Z,5.23
2018-05-10T09:12:06.962Z,5.90
2018-05-10T09:15:14.114Z,5.60
2018-05-10T09:18:20.269Z,5.47
2018-05-10T09:21:26.405Z,4.90
2018-05-10T09:24:32.760Z,4.43
2018-05-10T09:27:38.344Z,4.93
2018-05-10T09:30:43.556Z,4.60
2018-05-10T09:33:50.348Z,5.57
2018-05-10T09:36:56.310Z,5.43
2018-05-10T09:40:01.521Z,4.80
2018-05-10T09:43:06.850Z,5.30
2018-05-10T09:46:13.029Z,4.80
2018-05-10T09:49:19.113Z,4.23
2018-05-10T09:52:25.387Z,5.13
2018-05-10T09:55:30.981Z,5.50
2018-05-10T09:58:36.205Z,5.13
2018-05-10T10:01:43.234Z,5.60
2018-05-10T10:04:49.354Z,5.60
2018-05-10T10:07:55.468Z,4.97
2018-05-10T10:11:02.509Z,5.97
2018-05-10T10:14:08.640Z,5.53
2018-05-10T10:17:14.778Z,5.73
2018-05-10T10:20:21.757Z,6.17
2018-05-10T10:23:27.933Z,5.47
2018-05-10T10:26:34.958Z,5.80
2018-05-10T10:29:41.108Z,5.47
2018-05-10T10:32:46.308Z,5.90
2018-05-10T10:35:51.561Z,5.93
2018-05-10T10:38:57.532Z,6.40
2018-05-10T10:42:03.454Z,6.03
2018-05-10T10:45:09.619Z,6.03
2018-05-10T10:48:15.760Z,5.83
2018-05-10T10:51:21.000Z,6.20
2018-05-10T10:54:27.115Z,5.80
2018-05-10T10:57:32.732Z,6.17
2018-05-10T11:00:38.861Z,6.20
2018-05-10T11:03:44.776Z,6.53
2018-05-10T11:06:50.007Z,6.47
2018-05-10T11:09:55.401Z,5.80
2018-05-10T11:13:02.031Z,5.70
2018-05-10T11:16:08.273Z,5.67
2018-05-10T11:19:15.133Z,6.40
2018-05-10T11:22:22.208Z,5.80
2018-05-10T11:25:28.360Z,5.20
2018-05-10T11:28:34.494Z,6.13
2018-05-10T11:31:39.708Z,6.03
2018-05-10T11:34:46.751Z,5.87
2018-05-10T11:37:52.892Z,5.50
2018-05-10T11:40:59.036Z,5.50
2018-05-10T11:44:04.244Z,5.90
2018-05-10T11:47:09.452Z,6.47
2018-05-10T11:50:14.656Z,5.70
2018-05-10T11:53:19.861Z,6.00
2018-05-10T11:56:25.486Z,6.00
2018-05-10T11:59:30.709Z,6.10
2018-05-10T12:02:35.946Z,5.80
2018-05-10T12:05:41.349Z,6.67
2018-05-10T12:08:46.561Z,5.20
2018-05-10T12:11:51.768Z,5.80
2018-05-10T12:14:56.990Z,5.93
2018-05-10T12:18:02.205Z,5.63
2018-05-10T12:21:07.464Z,5.63
2018-05-10T12:24:12.658Z,5.80
2018-05-10T12:27:17.888Z,5.00
2018-05-10T12:30:24.033Z,5.67
2018-05-10T12:33:29.433Z,5.10
2018-05-10T12:36:34.636Z,5.40
2018-05-10T12:39:39.845Z,5.60
2018-05-10T12:42:45.620Z,5.50
2018-05-10T12:45:51.492Z,5.60
2018-05-10T12:48:57.420Z,5.43
2018-05-10T12:52:02.659Z,5.23
2018-05-10T12:55:07.592Z,5.50
2018-05-10T12:58:13.700Z,5.20
2018-05-10T13:01:19.822Z,5.50
2018-05-10T13:04:25.059Z,4.23
2018-05-10T13:07:30.312Z,4.77
2018-05-10T13:10:36.881Z,4.07
2018-05-10T13:13:43.008Z,4.43
2018-05-10T13:16:49.165Z,4.17
2018-05-10T13:19:56.344Z,5.37
2018-05-10T13:23:03.379Z,4.67
2018-05-10T13:26:09.239Z,6.10
2018-05-10T13:29:14.238Z,9.00
2018-05-10T13:32:20.371Z,11.80
2018-05-10T13:35:27.471Z,13.73
2018-05-10T13:38:32.740Z,14.70
2018-05-10T13:41:38.466Z,15.63
2018-05-10T13:44:44.404Z,17.10
2018-05-10T13:47:50.541Z,19.33
2018-05-10T13:50:56.786Z,21.60
2018-05-10T13:54:02.968Z,21.20
2018-05-10T13:57:10.041Z,20.60
2018-05-10T14:00:16.178Z,22.30
2018-05-10T14:03:21.895Z,21.43
2018-05-10T14:06:28.040Z,21.77
2018-05-10T14:09:34.162Z,22.33
2018-05-10T14:12:40.300Z,22.87
2018-05-10T14:15:46.429Z,25.57
2018-05-10T14:18:52.606Z,24.47
2018-05-10T14:21:58.079Z,25.00
2018-05-10T14:25:03.992Z,26.83
2018-05-10T14:28:09.217Z,27.20
2018-05-10T14:31:16.253Z,26.30
2018-05-10T14:34:22.424Z,26.60
2018-05-10T14:37:27.652Z,27.93
2018-05-10T14:40:33.834Z,24.43
2018-05-10T14:43:39.099Z,26.23
2018-05-10T14:46:46.137Z,23.27
2018-05-10T14:49:52.348Z,24.90
2018-05-10T14:52:58.495Z,21.87
2018-05-10T14:56:03.741Z,21.80
2018-05-10T14:59:08.974Z,21.80
2018-05-10T15:02:15.138Z,21.17
2018-05-10T15:05:20.735Z,20.93
2018-05-10T15:08:26.913Z,21.63
2018-05-10T15:11:34.060Z,19.43
2018-05-10T15:14:39.880Z,18.83
2018-05-10T15:17:46.281Z,18.20
2018-05-10T15:20:51.500Z,19.03
2018-05-10T15:23:57.139Z,17.37
2018-05-10T15:27:02.156Z,18.07
2018-05-10T15:30:08.100Z,17.90
2018-05-10T15:33:13.322Z,17.90
2018-05-10T15:36:19.065Z,16.60
2018-05-10T15:39:24.384Z,16.07
2018-05-10T15:42:30.949Z,16.20
2018-05-10T15:45:36.796Z,15.60
2018-05-10T15:48:42.013Z,15.00
2018-05-10T15:51:47.320Z,16.80
2018-05-10T15:54:53.736Z,15.50
2018-05-10T15:58:00.581Z,14.90
2018-05-10T16:01:06.409Z,13.47
2018-05-10T16:04:13.249Z,14.03
2018-05-10T16:07:19.403Z,12.20
2018-05-10T16:10:25.527Z,12.60
2018-05-10T16:13:30.752Z,12.07
2018-05-10T16:16:36.680Z,11.30
2018-05-10T16:19:42.932Z,10.77
2018-05-10T16:22:48.774Z,11.40
2018-05-10T16:25:54.249Z,11.53
2018-05-10T16:29:00.120Z,10.10
2018-05-10T16:32:06.397Z,8.10
2018-05-10T16:35:11.780Z,9.50
2018-05-10T16:38:16.993Z,9.40
2018-05-10T16:41:22.595Z,7.33
2018-05-10T16:44:28.717Z,7.10
2018-05-10T16:47:34.627Z,7.67
2018-05-10T16:50:39.545Z,6.27
2018-05-10T16:53:44.916Z,5.90
2018-05-10T16:56:51.033Z,4.77
2018-05-10T16:59:58.122Z,5.00
2018-05-10T17:03:04.266Z,5.43
2018-05-10T17:06:10.409Z,4.30
2018-05-10T17:09:16.520Z,4.73
2018-05-10T17:12:22.227Z,4.23
2018-05-10T17:15:27.434Z,4.67
2018-05-10T17:18:32.728Z,4.57
2018-05-10T17:21:37.908Z,4.40
2018-05-10T17:24:42.984Z,4.27
2018-05-10T17:27:47.958Z,4.17
2018-05-10T17:30:54.199Z,4.17
2018-05-10T17:34:00.502Z,2.90
2018-05-10T17:37:06.120Z,4.13
2018-05-10T17:40:11.337Z,4.30
2018-05-10T17:43:16.517Z,3.63
2018-05-10T17:46:22.757Z,3.93
2018-05-10T17:49:28.164Z,4.13
2018-05-10T17:52:33.805Z,4.40
2018-05-10T17:55:40.434Z,4.63
2018-05-10T17:58:46.552Z,3.70
2018-05-10T18:01:51.764Z,3.80
2018-05-10T18:04:57.608Z,3.10
2018-05-10T18:08:03.229Z,3.83
2018-05-10T18:11:09.369Z,3.77
2018-05-10T18:14:15.317Z,3.47
2018-05-10T18:17:20.244Z,3.03
2018-05-10T18:20:25.477Z,4.13
2018-05-10T18:23:31.694Z,3.80
2018-05-10T18:26:37.601Z,3.10
2018-05-10T18:29:43.512Z,3.90
2018-05-10T18:32:49.562Z,3.70
2018-05-10T18:35:55.250Z,3.63
2018-05-10T18:39:00.477Z,3.50
2018-05-10T18:42:05.380Z,3.80
2018-05-10T18:45:10.804Z,3.70
2018-05-10T18:48:15.742Z,4.13
2018-05-10T18:51:21.188Z,4.03
2018-05-10T18:54:26.144Z,3.50
2018-05-10T18:57:30.832Z,2.70
2018-05-10T19:00:36.664Z,4.03
2018-05-10T19:03:42.516Z,4.13
2018-05-10T19:06:49.129Z,3.57
2018-05-10T19:09:54.756Z,3.97
2018-05-10T19:13:00.657Z,4.20
2018-05-10T19:16:05.272Z,3.33
2018-05-10T19:19:10.702Z,2.80
2018-05-10T19:22:16.536Z,3.13
2018-05-10T19:25:21.528Z,3.30
2018-05-10T19:28:28.769Z,4.07
2018-05-10T19:31:33.802Z,3.03
2018-05-10T19:34:38.998Z,3.70
2018-05-10T19:37:44.896Z,3.33
2018-05-10T19:40:49.943Z,2.97
2018-05-10T19:43:55.153Z,3.83
2018-05-10T19:47:00.886Z,3.30
2018-05-10T19:50:06.944Z,2.90
2018-05-10T19:53:12.892Z,3.00
2018-05-10T19:56:18.804Z,3.33
2018-05-10T19:59:24.428Z,3.17
2018-05-10T20:02:29.350Z,4.00
2018-05-10T20:05:34.471Z,3.70
2018-05-10T20:08:40.111Z,3.40
2018-05-10T20:11:45.882Z,2.80
2018-05-10T20:14:50.805Z,2.60
2018-05-10T20:17:56.422Z,3.30
2018-05-10T20:21:02.610Z,3.00
2018-05-10T20:24:07.758Z,2.90
2018-05-10T20:27:15.750Z,2.93
2018-05-10T20:30:21.605Z,3.13
2018-05-10T20:33:27.757Z,3.40
2018-05-10T20:36:33.104Z,2.87
2018-05-10T20:39:39.932Z,2.43
2018-05-10T20:42:45.134Z,2.63
2018-05-10T20:45:50.864Z,2.53
2018-05-10T20:48:56.692Z,2.50
2018-05-10T20:52:02.571Z,2.97
2018-05-10T20:55:08.499Z,2.20
2018-05-10T20:58:14.413Z,2.40
2018-05-10T21:01:19.635Z,1.70
2018-05-10T21:04:25.532Z,2.43
2018-05-10T21:07:31.798Z,3.13
2018-05-10T21:10:37.437Z,2.10
2018-05-10T21:13:42.396Z,2.47
2018-05-10T21:16:47.367Z,3.20
2018-05-10T21:19:52.164Z,2.90
2018-05-10T21:22:59.119Z,3.00
2018-05-10T21:26:04.829Z,1.90
2018-05-10T21:29:10.156Z,2.73
2018-05-10T21:32:15.981Z,2.63
2018-05-10T21:35:21.628Z,2.87
2018-05-10T21:38:26.835Z,2.40
2018-05-10T21:41:31.765Z,2.30
2018-05-10T21:44:36.793Z,2.10
2018-05-10T21:47:42.795Z,2.00
2018-05-10T21:50:48.513Z,2.30
2018-05-10T21:53:54.641Z,2.30
2018-05-10T21:57:01.473Z,2.43
2018-05-10T22:00:07.047Z,2.37
2018-05-10T22:03:12.888Z,1.87
2018-05-10T22:06:19.676Z,2.23
2018-05-10T22:09:26.236Z,2.17
2018-05-10T22:12:32.046Z,2.20
2018-05-10T22:15:37.757Z,2.40
2018-05-10T22:18:42.727Z,1.97
2018-05-10T22:21:48.115Z,2.20
2018-05-10T22:24:53.944Z,2.33
2018-05-10T22:28:00.076Z,2.10
2018-05-10T22:31:06.873Z,2.70
2018-05-10T22:34:12.696Z,1.77
2018-05-10T22:37:17.430Z,2.67
2018-05-10T22:40:23.260Z,1.70
2018-05-10T22:43:29.099Z,1.53
2018-05-10T22:46:34.100Z,2.30
2018-05-10T22:49:39.317Z,2.27
2018-05-10T22:52:45.071Z,1.90
2018-05-10T22:55:50.834Z,2.03
2018-05-10T22:58:56.800Z,2.37
2018-05-10T23:02:02.012Z,1.70
2018-05-10T23:05:09.052Z,1.87
2018-05-10T23:08:14.796Z,1.90
2018-05-10T23:11:20.650Z,2.00
2018-05-10T23:14:27.644Z,2.10
2018-05-10T23:17:33.495Z,2.40
2018-05-10T23:20:38.434Z,3.10
2018-05-10T23:23:43.771Z,2.43
2018-05-10T23:26:48.978Z,2.10
2018-05-10T23:29:54.381Z,2.60
2018-05-10T23:32:59.587Z,1.60
2018-05-10T23:36:04.814Z,3.00
2018-05-10T23:39:10.920Z,2.27
2018-05-10T23:42:17.128Z,2.43
2018-05-10T23:45:24.056Z,2.40
2018-05-10T23:48:30.232Z,2.00
2018-05-10T23:51:37.088Z,2.30
2018-05-10T23:54:43.204Z,2.73
2018-05-10T23:57:49.117Z,2.60
